Time;durP1;ratioP1;P1;durP2;ratioP2;P2;SDS_P1;SDS_P2;PMS_P1;PMS_P2;Temp;Humidity;BMP_temperature;BMP_pressure;BME280_temperature;BME280_humidity;BME280_pressure;Samples;Min_cycle;Max_cycle;Signal;HPM_P1;HPM_P2
2022/06/13 00:00:22;;;;;;;2.00;1.30;;;;;;;17.68;82.73;96150.94;5081209;28;20551;-61
2022/06/13 00:02:47;;;;;;;1.58;1.48;;;;;;;17.74;82.57;96149.41;5071791;28;20028;-61
2022/06/13 00:05:14;;;;;;;1.63;1.63;;;;;;;17.72;82.33;96144.25;5076847;28;20448;-61
2022/06/13 00:07:39;;;;;;;2.22;1.73;;;;;;;17.76;81.17;96140.22;5078539;28;20023;-61
2022/06/13 00:10:06;;;;;;;1.67;1.58;;;;;;;17.81;82.05;96141.53;5080393;28;20093;-62
2022/06/13 00:12:32;;;;;;;2.63;1.65;;;;;;;17.79;80.58;96131.06;5079939;28;20097;-61
2022/06/13 00:14:58;;;;;;;2.88;1.90;;;;;;;17.70;82.34;96130.28;5074026;28;20410;-61
2022/06/13 00:17:25;;;;;;;1.75;1.60;;;;;;;17.64;82.15;96128.31;5076641;28;20028;-61
2022/06/13 00:19:50;;;;;;;1.60;1.50;;;;;;;17.60;81.75;96119.03;5078864;28;20028;-62
2022/06/13 00:22:15;;;;;;;3.60;1.45;;;;;;;17.55;81.98;96124.03;5076200;28;20020;-61
2022/06/13 00:24:41;;;;;;;1.63;1.60;;;;;;;17.52;82.23;96119.06;5076710;28;20539;-61
2022/06/13 00:27:06;;;;;;;1.77;1.67;;;;;;;17.49;82.42;96114.94;5074810;28;20625;-62
2022/06/13 00:29:32;;;;;;;3.55;1.75;;;;;;;17.42;83.25;96104.16;5087326;28;20043;-61
2022/06/13 00:31:57;;;;;;;1.65;1.55;;;;;;;17.40;82.47;96100.84;5081264;28;20094;-62
2022/06/13 00:34:23;;;;;;;4.18;1.70;;;;;;;17.44;82.96;96099.50;5079175;28;20036;-62
2022/06/13 00:36:48;;;;;;;1.67;1.60;;;;;;;17.30;83.95;96105.53;5081313;28;20505;-61
2022/06/13 00:39:14;;;;;;;1.95;1.77;;;;;;;17.18;84.95;96103.28;5085738;28;20469;-62
2022/06/13 00:41:42;;;;;;;1.85;1.67;;;;;;;17.11;84.51;96096.97;5077836;28;20089;-61
2022/06/13 00:44:36;;;;;;;4.03;1.38;;;;;;;17.03;85.68;96105.84;5085620;28;20118;-61
2022/06/13 00:47:02;;;;;;;2.15;1.90;;;;;;;16.98;85.51;96102.00;5074374;28;20043;-61
2022/06/13 00:49:44;;;;;;;4.55;1.85;;;;;;;16.94;87.86;96100.69;5056123;28;20024;-61
2022/06/13 00:52:17;;;;;;;1.80;1.70;;;;;;;16.94;87.22;96104.16;5078626;28;20043;-61
2022/06/13 00:54:44;;;;;;;1.92;1.80;;;;;;;16.95;86.94;96099.69;5079975;28;20491;-62
2022/06/13 00:57:15;;;;;;;4.00;1.70;;;;;;;16.93;87.45;96105.19;5075517;28;20056;-61
2022/06/13 00:59:41;;;;;;;1.67;1.50;;;;;;;16.93;86.90;96099.84;5077428;28;20491;-64
2022/06/13 01:02:07;;;;;;;1.70;1.60;;;;;;;16.96;85.35;96096.84;5082224;28;20020;-61
2022/06/13 01:04:34;;;;;;;2.83;1.85;;;;;;;16.84;86.26;96096.41;5073520;28;20029;-61
2022/06/13 01:07:01;;;;;;;2.13;1.92;;;;;;;16.80;85.80;96096.91;5080484;28;20066;-62
2022/06/13 01:12:12;;;;;;;1.60;1.50;;;;;;;16.66;87.19;96098.44;5081438;28;20112;-61
2022/06/13 01:14:53;;;;;;;4.03;1.83;;;;;;;16.60;88.03;96095.47;5076991;28;20040;-61
2022/06/13 01:17:24;;;;;;;2.08;1.90;;;;;;;16.52;89.13;96092.84;5075503;28;20031;-61
2022/06/13 01:20:21;;;;;;;3.30;1.80;;;;;;;16.43;89.30;96089.38;5080259;28;20027;-61
2022/06/13 01:23:05;;;;;;;2.33;2.20;;;;;;;16.41;89.10;96088.72;5082406;28;20050;-61
2022/06/13 01:25:58;;;;;;;4.97;2.00;;;;;;;16.41;89.96;96086.06;5079266;28;20078;-62
2022/06/13 01:28:35;;;;;;;4.97;2.03;;;;;;;16.43;89.66;96094.69;5074696;28;20028;-62
2022/06/13 01:31:12;;;;;;;1.77;1.67;;;;;;;16.44;89.96;96088.38;5081540;28;20043;-61
2022/06/13 01:33:43;;;;;;;1.65;1.55;;;;;;;16.35;90.70;96076.06;5073117;28;20041;-62
2022/06/13 01:36:30;;;;;;;2.30;1.95;;;;;;;16.32;89.87;96071.94;5081945;28;20090;-62
2022/06/13 01:39:34;;;;;;;1.73;1.63;;;;;;;16.36;89.50;96071.59;5075892;28;20024;-61
2022/06/13 01:42:03;;;;;;;5.03;1.95;;;;;;;16.35;89.03;96076.06;5042160;28;20041;-62
2022/06/13 01:44:34;;;;;;;2.55;1.83;;;;;;;16.26;89.90;96077.94;5077556;28;20028;-61
2022/06/13 01:47:18;;;;;;;2.03;1.65;;;;;;;16.18;91.08;96080.59;5080366;28;20085;-61
2022/06/13 01:50:07;;;;;;;2.67;2.00;;;;;;;16.22;90.73;96075.78;5071606;28;20503;-61
2022/06/13 01:52:43;;;;;;;4.10;2.00;;;;;;;16.26;90.72;96077.09;5080182;28;20055;-61
2022/06/13 01:55:36;;;;;;;2.08;1.85;;;;;;;16.23;90.60;96070.28;5077985;28;20034;-60
2022/06/13 01:58:14;;;;;;;1.90;1.77;;;;;;;16.32;89.71;96066.63;5078473;28;20478;-62
2022/06/13 02:00:46;;;;;;;2.40;2.20;;;;;;;16.37;89.06;96066.13;5082405;28;20035;-61
2022/06/13 02:03:27;;;;;;;1.83;1.70;;;;;;;16.49;87.90;96065.75;5076500;28;20031;-61
2022/06/13 02:06:01;;;;;;;1.88;1.77;;;;;;;16.49;87.77;96071.91;5072113;28;20137;-61
2022/06/13 02:08:33;;;;;;;3.15;2.15;;;;;;;16.47;88.24;96077.41;5074818;28;20020;-61
2022/06/13 02:11:08;;;;;;;1.98;1.85;;;;;;;16.43;88.53;96076.09;5088916;28;20073;-61
2022/06/13 02:13:36;;;;;;;6.93;3.95;;;;;;;16.41;87.66;96077.25;5086995;28;20116;-61
2022/06/13 02:16:08;;;;;;;3.38;2.42;;;;;;;16.42;88.04;96076.25;5089800;28;20036;-61
2022/06/13 02:18:44;;;;;;;3.47;2.53;;;;;;;16.39;88.02;96069.44;5089682;28;20020;-62
2022/06/13 02:21:10;;;;;;;;;;;;;;;16.32;89.28;96071.09;5088025;28;20024;-61
2022/06/13 02:23:41;;;;;;;2.70;2.50;;;;;;;16.23;89.15;96067.63;5089364;28;20388;-61
2022/06/13 02:26:11;;;;;;;4.82;2.35;;;;;;;16.22;87.08;96068.63;5089649;28;20028;-62
2022/06/13 02:28:47;;;;;;;3.78;2.10;;;;;;;16.20;88.02;96069.81;5089690;28;20027;-61
2022/06/13 02:31:12;;;;;;;2.72;2.10;;;;;;;16.24;87.60;96073.78;5077847;28;20012;-61
2022/06/13 02:33:46;;;;;;;2.70;2.05;;;;;;;16.22;87.76;96073.94;5089230;28;20094;-61
2022/06/13 02:36:20;;;;;;;2.15;2.05;;;;;;;16.18;88.00;96078.78;5089166;28;20084;-62
2022/06/13 02:38:58;;;;;;;4.60;2.10;;;;;;;16.16;87.79;96071.97;5084274;28;20032;-61
2022/06/13 02:41:29;;;;;;;2.03;1.67;;;;;;;16.15;87.34;96062.34;5085270;28;20479;-61
2022/06/13 02:44:02;;;;;;;1.70;1.60;;;;;;;16.15;87.21;96065.00;5089331;28;20116;-62
2022/06/13 02:46:36;;;;;;;1.88;1.77;;;;;;;16.00;88.34;96064.84;5087179;28;20028;-61
2022/06/13 02:49:11;;;;;;;2.00;1.88;;;;;;;15.97;87.39;96068.66;5089349;28;20084;-61
2022/06/13 02:51:39;;;;;;;;;;;;;;;16.06;87.71;96066.81;5089747;28;20035;-61
2022/06/13 02:54:20;;;;;;;1.88;1.77;;;;;;;16.03;87.57;96075.13;5089525;28;19998;-62
2022/06/13 03:00:05;;;;;;;2.20;1.63;;;;;;;15.92;88.30;96078.94;5089490;28;20476;-61
2022/06/13 03:02:46;;;;;;;3.97;1.88;;;;;;;15.91;87.78;96071.97;5081504;28;20151;-60
2022/06/13 03:05:21;;;;;;;2.08;1.80;;;;;;;15.87;87.77;96067.97;5089100;28;20036;-61
2022/06/13 03:08:10;;;;;;;3.80;1.83;;;;;;;15.81;88.11;96066.81;5089496;28;20069;-61
2022/06/13 03:11:21;;;;;;;1.88;1.75;;;;;;;15.76;88.67;96071.78;5076108;28;20214;-61
2022/06/13 03:13:56;;;;;;;4.03;2.08;;;;;;;15.70;88.27;96075.91;5076921;28;20449;-61
2022/06/13 03:16:21;;;;;;;;;;;;;;;15.71;88.84;96068.81;5076220;28;20515;-61
2022/06/13 03:18:51;;;;;;;2.47;2.27;;;;;;;15.75;88.16;96070.13;5080866;28;19912;-60
2022/06/13 03:21:26;;;;;;;2.42;2.13;;;;;;;15.75;88.75;96075.44;5086303;28;20309;-61
2022/06/13 03:24:10;;;;;;;2.10;1.92;;;;;;;15.69;88.23;96070.75;5091798;28;20052;-61
2022/06/13 03:26:42;;;;;;;2.35;2.15;;;;;;;15.64;88.83;96068.63;5092468;28;20114;-61
2022/06/13 03:29:19;;;;;;;3.15;2.05;;;;;;;15.59;89.37;96070.94;5090614;28;20435;-62
2022/06/13 03:31:50;;;;;;;3.53;2.30;;;;;;;15.52;89.05;96081.38;5089438;28;20181;-61
2022/06/13 03:34:32;;;;;;;2.28;2.00;;;;;;;15.49;89.59;96072.91;5091924;28;20632;-61
2022/06/13 03:37:04;;;;;;;5.28;2.80;;;;;;;15.44;89.66;96079.53;5085131;28;20024;-62
2022/06/13 03:39:58;;;;;;;2.88;2.67;;;;;;;15.45;89.54;96075.91;5084052;28;20076;-60
2022/06/13 03:42:34;;;;;;;3.10;2.88;;;;;;;15.49;89.22;96083.53;5074524;28;20075;-62
2022/06/13 03:45:06;;;;;;;2.45;2.25;;;;;;;15.45;90.10;96080.34;5090387;28;20542;-61
2022/06/13 03:47:46;;;;;;;6.03;2.92;;;;;;;15.41;89.85;96085.19;5088024;28;20043;-61
2022/06/13 03:50:31;;;;;;;3.78;2.70;;;;;;;15.46;88.77;96092.63;5091922;28;20015;-61
2022/06/13 03:53:03;;;;;;;3.92;2.53;;;;;;;15.43;89.17;96095.59;5091470;28;20440;-61
2022/06/13 03:55:38;;;;;;;4.47;3.72;;;;;;;15.41;89.23;96101.09;5078357;28;20035;-61
2022/06/13 03:58:19;;;;;;;10.60;3.95;;;;;;;15.38;90.05;96106.72;5088601;28;20052;-62
2022/06/13 04:00:51;;;;;;;2.45;2.05;;;;;;;15.38;89.98;96112.03;5081292;28;20032;-61
2022/06/13 04:03:18;;;;;;;2.15;2.05;;;;;;;15.36;90.04;96097.25;5091791;28;20024;-61
2022/06/13 04:06:03;;;;;;;2.63;2.13;;;;;;;15.32;89.66;96099.41;5088020;28;20026;-61
2022/06/13 04:08:32;;;;;;;3.50;1.90;;;;;;;15.29;91.01;96097.06;5085401;28;20087;-62
2022/06/13 04:11:30;;;;;;;4.43;2.20;;;;;;;15.28;90.64;96098.91;5090457;28;20118;-62
2022/06/13 04:14:19;;;;;;;4.00;1.90;;;;;;;15.30;90.64;96093.44;5090535;28;20123;-62
2022/06/13 04:16:53;;;;;;;3.88;2.30;;;;;;;15.33;90.63;96088.63;5086255;28;20094;-61
2022/06/13 04:19:34;;;;;;;4.93;2.00;;;;;;;15.44;89.48;96092.81;5081008;28;20093;-57
2022/06/13 04:22:08;;;;;;;2.53;2.33;;;;;;;15.45;89.23;96097.13;5071152;28;20028;-58
2022/06/13 04:25:04;;;;;;;2.08;1.95;;;;;;;15.41;90.14;96090.47;5064922;28;20117;-57
2022/06/13 04:27:40;;;;;;;6.28;3.42;;;;;;;15.40;89.80;96087.97;5091428;28;20012;-59
2022/06/13 04:30:17;;;;;;;2.60;2.20;;;;;;;15.38;89.84;96087.31;5091015;28;20056;-58
2022/06/13 04:32:48;;;;;;;2.40;2.20;;;;;;;15.30;90.96;96086.31;5091254;28;20436;-58
2022/06/13 04:35:15;;;;;;;2.10;1.92;;;;;;;15.30;90.93;96082.81;5091037;28;20028;-58
2022/06/13 04:37:42;;;;;;;2.20;2.00;;;;;;;15.27;91.06;96077.84;5072848;28;20410;-57
2022/06/13 04:40:14;;;;;;;3.38;2.08;;;;;;;15.32;90.82;96075.53;5091001;28;20036;-59
2022/06/13 04:42:41;;;;;;;2.50;1.98;;;;;;;15.38;90.57;96085.50;5090866;28;20020;-58
2022/06/13 04:45:31;;;;;;;4.18;1.77;;;;;;;15.44;89.58;96081.34;5091036;28;20023;-58
2022/06/13 04:47:57;;;;;;;2.63;2.42;;;;;;;15.41;89.77;96082.53;5091135;28;20553;-58
2022/06/13 04:50:34;;;;;;;4.45;2.05;;;;;;;15.33;92.28;96083.31;5091028;28;20020;-58
2022/06/13 04:53:03;;;;;;;2.55;2.30;;;;;;;15.32;92.55;96086.13;5091057;28;20031;-54
2022/06/13 04:55:38;;;;;;;5.15;2.20;;;;;;;15.38;91.04;96085.50;5091342;28;20510;-58
2022/06/13 04:58:03;;;;;;;2.45;2.25;;;;;;;15.48;90.88;96088.00;5090613;28;20012;-58
2022/06/13 05:00:31;;;;;;;6.68;2.70;;;;;;;15.54;90.54;96091.81;5091049;28;20515;-58
2022/06/13 05:02:57;;;;;;;3.28;2.92;;;;;;;15.58;90.69;96088.69;5091078;28;20034;-58
2022/06/13 05:05:38;;;;;;;3.33;3.13;;;;;;;15.70;89.56;96093.69;5072579;28;20517;-59
2022/06/13 05:08:13;;;;;;;4.25;3.15;;;;;;;15.83;89.41;96095.84;5090675;28;20016;-58
2022/06/13 05:10:41;;;;;;;3.45;3.15;;;;;;;15.95;88.92;96097.19;5077191;28;20027;-58
2022/06/13 05:13:07;;;;;;;4.53;3.55;;;;;;;16.11;89.39;96103.50;5090500;28;20101;-58
2022/06/13 05:15:33;;;;;;;5.78;4.13;;;;;;;16.29;88.27;96103.31;5090727;28;20518;-57
2022/06/13 05:18:04;;;;;;;3.97;2.25;;;;;;;16.43;86.68;96105.31;5090671;28;20032;-58
2022/06/13 05:21:00;;;;;;;2.70;2.05;;;;;;;16.39;88.05;96108.47;5090664;28;20073;-58
2022/06/13 05:23:31;;;;;;;5.63;1.92;;;;;;;16.50;86.94;96113.44;5090222;28;20048;-58
2022/06/13 05:25:59;;;;;;;3.00;2.00;;;;;;;16.63;85.86;96114.72;5076965;28;20020;-58
2022/06/13 05:28:29;;;;;;;3.55;2.15;;;;;;;16.71;85.05;96120.03;5090523;28;20390;-58
2022/06/13 05:30:57;;;;;;;8.48;2.20;;;;;;;16.78;84.58;96120.16;5090042;28;20035;-58
2022/06/13 05:33:26;;;;;;;3.40;2.50;;;;;;;16.85;83.99;96132.63;5090361;28;20028;-59
2022/06/13 05:35:54;;;;;;;2.20;2.00;;;;;;;16.92;83.28;96137.28;5089457;28;20107;-58
2022/06/13 05:38:30;;;;;;;2.13;1.95;;;;;;;16.90;83.12;96137.44;5089958;28;20028;-59
2022/06/13 05:40:56;;;;;;;2.00;1.90;;;;;;;16.90;82.79;96140.91;5089978;28;20111;-58
2022/06/13 05:43:21;;;;;;;4.28;1.70;;;;;;;16.87;83.12;96135.94;5089927;28;20103;-58
2022/06/13 05:45:46;;;;;;;2.13;1.90;;;;;;;16.85;83.96;96137.94;5089771;28;20031;-58
2022/06/13 05:48:15;;;;;;;4.63;2.28;;;;;;;16.95;83.90;96151.03;5090033;28;20039;-59
2022/06/13 05:50:41;;;;;;;5.55;1.98;;;;;;;16.97;83.81;96153.53;5090114;28;20540;-59
2022/06/13 05:53:11;;;;;;;1.90;1.80;;;;;;;16.97;84.06;96156.19;5071589;28;20471;-58
2022/06/13 05:55:36;;;;;;;2.63;2.38;;;;;;;17.00;83.32;96155.88;5089872;28;20028;-57
2022/06/13 05:58:02;;;;;;;2.65;1.83;;;;;;;17.15;81.69;96162.16;5089853;28;20074;-58
2022/06/13 06:00:32;;;;;;;5.00;1.95;;;;;;;17.25;80.77;96159.31;5089696;28;20516;-58
2022/06/13 06:02:58;;;;;;;2.83;2.15;;;;;;;17.22;82.68;96153.47;5089715;28;20071;-58
2022/06/13 06:05:23;;;;;;;3.13;1.67;;;;;;;17.33;82.92;96153.09;5089626;28;20062;-58
2022/06/13 06:07:49;;;;;;;2.35;1.80;;;;;;;17.42;82.07;96153.88;5089560;28;20035;-58
2022/06/13 06:10:20;;;;;;;2.75;2.10;;;;;;;17.40;82.22;96150.56;5089330;28;20080;-58
2022/06/13 06:12:46;;;;;;;3.20;2.45;;;;;;;17.61;81.33;96144.66;5071497;28;20498;-58
2022/06/13 06:15:12;;;;;;;4.53;2.63;;;;;;;17.74;80.74;96139.56;5089495;28;20090;-58
2022/06/13 06:17:37;;;;;;;2.30;2.08;;;;;;;17.91;79.16;96142.13;5090016;28;20060;-58
2022/06/13 06:20:03;;;;;;;4.05;2.30;;;;;;;17.97;79.68;96130.75;5089160;28;20735;-59
2022/06/13 06:22:29;;;;;;;3.40;2.17;;;;;;;18.01;79.42;96136.56;5083241;28;20028;-58
2022/06/13 06:24:54;;;;;;;2.22;1.85;;;;;;;18.14;79.84;96142.16;5081354;28;20506;-58
2022/06/13 06:27:20;;;;;;;2.75;2.25;;;;;;;18.24;78.93;96144.59;5089039;28;20059;-58
2022/06/13 06:29:45;;;;;;;4.72;2.97;;;;;;;18.43;77.20;96145.06;5089219;28;20031;-58
2022/06/13 06:32:10;;;;;;;2.10;2.00;;;;;;;18.68;74.75;96145.69;5088791;28;20020;-58
2022/06/13 06:34:36;;;;;;;5.30;2.00;;;;;;;18.92;73.66;96141.09;5089842;28;20107;-58
2022/06/13 06:37:01;;;;;;;2.10;1.90;;;;;;;18.98;74.39;96142.22;5089528;28;20114;-58
2022/06/13 06:39:27;;;;;;;4.82;2.13;;;;;;;19.01;74.45;96140.06;5089349;28;20024;-58
2022/06/13 06:41:52;;;;;;;4.75;2.00;;;;;;;19.13;74.69;96142.25;5088654;28;20028;-59
2022/06/13 06:44:18;;;;;;;3.25;1.58;;;;;;;19.22;72.91;96148.31;5089150;28;20446;-58
2022/06/13 06:46:43;;;;;;;1.77;1.67;;;;;;;19.21;72.86;96147.47;5075278;28;20032;-59
2022/06/13 06:49:10;;;;;;;1.58;1.52;;;;;;;19.17;72.14;96152.38;5092901;28;20030;-59
2022/06/13 06:51:35;;;;;;;3.35;1.60;;;;;;;19.15;71.94;96151.72;5093216;28;20028;-58
2022/06/13 07:02:14;;;;;;;2.42;1.92;;;;;;;20.17;69.26;96159.06;5080404;28;20517;-59
2022/06/13 07:04:39;;;;;;;1.90;1.60;;;;;;;19.97;69.58;96159.69;5093543;28;20020;-58
2022/06/13 07:07:05;;;;;;;2.97;1.52;;;;;;;19.96;70.05;96152.69;5092973;28;20019;-58
2022/06/13 07:09:30;;;;;;;1.60;1.45;;;;;;;20.09;69.05;96151.16;5074646;28;20016;-59
2022/06/13 07:11:56;;;;;;;2.95;1.60;;;;;;;20.19;68.37;96149.00;5092672;28;20376;-58
2022/06/13 07:14:26;;;;;;;2.83;1.80;;;;;;;20.17;68.06;96143.00;5093023;28;20016;-59
2022/06/13 07:16:52;;;;;;;1.58;1.48;;;;;;;20.39;67.05;96137.66;5092226;28;20028;-58
2022/06/13 07:19:18;;;;;;;1.67;1.58;;;;;;;20.35;67.24;96139.91;5092950;28;20024;-58
2022/06/13 07:21:44;;;;;;;1.65;1.58;;;;;;;20.33;66.68;96141.91;5092726;28;20028;-58
2022/06/13 07:24:10;;;;;;;2.30;1.60;;;;;;;21.20;63.89;96143.56;5092783;28;20080;-59
2022/06/13 07:26:36;;;;;;;1.67;1.58;;;;;;;21.81;61.65;96144.69;5092612;28;20032;-58
2022/06/13 07:29:03;;;;;;;1.60;1.50;;;;;;;21.60;61.77;96143.75;5092213;28;20574;-59
2022/06/13 07:31:41;;;;;;;5.03;1.63;;;;;;;21.55;63.86;96143.50;5092387;28;20067;-58
2022/06/13 07:34:12;;;;;;;4.80;1.38;;;;;;;21.46;64.15;96142.88;5092150;28;20031;-59
2022/06/13 07:36:37;;;;;;;1.58;1.50;;;;;;;21.75;63.88;96143.63;5092276;28;20046;-59
2022/06/13 07:39:03;;;;;;;1.98;1.40;;;;;;;22.08;62.50;96142.06;5092076;28;20490;-59
2022/06/13 07:41:28;;;;;;;1.77;1.60;;;;;;;22.98;59.11;96147.00;5092352;28;20024;-58
2022/06/13 07:43:56;;;;;;;2.25;1.52;;;;;;;24.00;58.17;96145.63;5092075;28;20032;-59
2022/06/13 07:46:25;;;;;;;3.85;1.48;;;;;;;23.86;53.79;96139.47;5092158;28;20052;-59
2022/06/13 07:48:51;;;;;;;2.85;1.60;;;;;;;23.52;55.66;96146.88;5092311;28;20432;-59
2022/06/13 07:51:18;;;;;;;2.25;1.58;;;;;;;23.51;53.72;96150.63;5092051;28;20024;-59
2022/06/13 07:53:43;;;;;;;3.08;1.77;;;;;;;23.40;54.84;96154.78;5092450;28;20475;-58
2022/06/13 07:56:13;;;;;;;2.47;1.80;;;;;;;23.01;55.32;96151.97;5092161;28;20032;-58
2022/06/13 07:58:42;;;;;;;2.55;1.70;;;;;;;22.79;57.17;96159.44;5092131;28;20027;-58
2022/06/13 08:01:10;;;;;;;1.65;1.50;;;;;;;22.39;58.47;96165.59;5091382;28;20114;-59
2022/06/13 08:03:35;;;;;;;1.90;1.60;;;;;;;22.29;57.49;96163.31;5073524;28;20032;-58
2022/06/13 08:06:02;;;;;;;2.22;1.65;;;;;;;22.06;57.91;96160.19;5091805;28;20111;-59
2022/06/13 08:08:28;;;;;;;1.60;1.45;;;;;;;22.03;58.93;96150.69;5091797;28;20023;-59
2022/06/13 08:10:55;;;;;;;1.75;1.65;;;;;;;21.97;60.07;96149.66;5091906;28;20028;-59
2022/06/13 08:13:22;;;;;;;2.40;1.50;;;;;;;22.10;60.47;96150.72;5091602;28;20032;-59
2022/06/13 08:15:48;;;;;;;2.03;1.80;;;;;;;22.44;58.68;96159.63;5073538;28;20489;-58
2022/06/13 08:18:14;;;;;;;1.80;1.38;;;;;;;22.94;56.91;96158.38;5091796;28;20028;-59
2022/06/13 08:20:42;;;;;;;3.03;1.63;;;;;;;23.12;57.02;96155.03;5091643;28;20028;-59
2022/06/13 08:23:10;;;;;;;2.00;1.58;;;;;;;23.11;56.65;96150.72;5091260;28;20119;-59
2022/06/13 08:25:37;;;;;;;2.90;1.58;;;;;;;23.17;55.65;96153.38;5091297;28;20032;-58
2022/06/13 08:28:04;;;;;;;2.45;1.60;;;;;;;23.56;54.83;96147.31;5091243;28;20028;-58
2022/06/13 08:30:37;;;;;;;1.55;1.48;;;;;;;24.70;51.87;96145.75;5091102;28;20546;-58
2022/06/13 08:33:03;;;;;;;1.45;1.35;;;;;;;25.30;48.55;96144.34;5090921;28;20040;-59
2022/06/13 08:35:29;;;;;;;1.60;1.50;;;;;;;25.98;45.58;96139.81;5090817;28;20032;-58
2022/06/13 08:37:54;;;;;;;1.67;1.55;;;;;;;26.01;47.35;96139.34;5090979;28;20035;-59
2022/06/13 08:40:19;;;;;;;2.63;1.38;;;;;;;26.46;45.16;96143.47;5091717;28;20118;-59
2022/06/13 08:43:34;;;;;;;1.80;1.30;;;;;;;26.95;41.76;96142.47;5090949;28;20022;-59
2022/06/13 08:46:16;;;;;;;3.05;1.08;;;;;;;27.27;41.60;96141.25;5030592;28;20441;-57
2022/06/13 08:48:46;;;;;;;1.20;1.20;;;;;;;27.61;40.65;96138.75;5079060;28;20020;-57
2022/06/13 08:51:17;;;;;;;3.55;1.40;;;;;;;27.94;40.91;96139.91;5090889;28;20035;-58
2022/06/13 08:53:48;;;;;;;1.60;1.50;;;;;;;27.89;41.28;96150.66;5090823;28;20032;-57
2022/06/13 08:56:17;;;;;;;1.48;1.35;;;;;;;27.72;40.79;96146.00;5090737;28;20483;-57
2022/06/13 08:58:54;;;;;;;2.45;1.50;;;;;;;27.82;42.53;96136.44;5090859;28;20020;-58
2022/06/13 09:01:36;;;;;;;1.73;1.50;;;;;;;28.02;41.52;96144.13;5091197;28;20024;-57
2022/06/13 09:04:17;;;;;;;2.28;1.40;;;;;;;28.44;40.62;96140.28;5090723;28;20031;-57
2022/06/13 09:07:13;;;;;;;1.23;1.17;;;;;;;28.11;42.09;96136.44;5090802;28;20036;-57
2022/06/13 09:09:53;;;;;;;2.47;1.65;;;;;;;28.34;41.53;96140.09;5090867;28;20165;-56
2022/06/13 09:12:28;;;;;;;2.47;1.27;;;;;;;28.66;40.00;96132.22;5089843;28;20034;-57
2022/06/13 09:15:02;;;;;;;1.85;1.13;;;;;;;28.55;40.34;96136.66;5073314;28;20125;-57
2022/06/13 09:17:46;;;;;;;;;;;;;;;29.20;37.33;96135.47;5077802;28;20028;-57
2022/06/13 09:20:27;;;;;;;2.05;1.25;;;;;;;29.42;39.00;96133.63;5090308;28;19912;-58
2022/06/13 09:23:20;;;;;;;2.28;1.30;;;;;;;29.42;38.87;96136.34;5090411;28;20083;-57
2022/06/13 09:25:48;;;;;;;1.80;1.33;;;;;;;29.44;40.04;96134.19;5090576;28;20511;-57
2022/06/13 09:28:49;;;;;;;1.20;1.20;;;;;;;29.52;38.74;96132.13;5090357;28;20553;-57
2022/06/13 09:31:41;;;;;;;3.83;1.25;;;;;;;29.54;38.21;96124.56;5056162;28;20048;-57
2022/06/13 09:34:12;;;;;;;1.20;1.15;;;;;;;29.55;39.09;96127.00;5055000;28;20448;-57
2022/06/13 09:36:57;;;;;;;2.53;1.40;;;;;;;29.85;37.35;96120.31;5090002;28;20036;-57
2022/06/13 09:39:22;;;;;;;1.45;1.25;;;;;;;30.16;37.10;96120.63;5090262;28;20440;-57
2022/06/13 09:42:06;;;;;;;0.95;0.95;;;;;;;30.21;36.17;96116.31;5090166;28;20024;-57
2022/06/13 09:44:34;;;;;;;1.90;1.40;;;;;;;31.15;35.52;96110.50;5089925;28;20031;-58
2022/06/13 09:47:02;;;;;;;1.60;1.30;;;;;;;30.75;36.19;96111.91;5090011;28;20436;-57
2022/06/13 09:49:36;;;;;;;3.22;1.20;;;;;;;30.81;35.25;96108.94;5089903;28;20020;-57
2022/06/13 09:52:01;;;;;;;4.82;1.38;;;;;;;31.19;35.65;96114.34;5089803;28;20095;-57
2022/06/13 09:54:45;;;;;;;1.27;1.08;;;;;;;31.07;35.61;96111.84;5090052;28;20107;-57
2022/06/13 09:57:29;;;;;;;2.83;1.03;;;;;;;30.91;34.67;96097.31;5089819;28;20462;-57
2022/06/13 10:00:31;;;;;;;3.28;1.15;;;;;;;31.11;35.23;96102.06;5071912;28;20270;-57
2022/06/13 10:02:57;;;;;;;1.30;1.20;;;;;;;31.50;34.88;96103.63;5089954;28;20036;-56
2022/06/13 10:05:38;;;;;;;1.67;1.40;;;;;;;31.70;33.89;96097.41;5090042;28;20024;-57
2022/06/13 10:09:00;;;;;;;4.70;1.27;;;;;;;31.44;34.44;96093.81;5089830;28;20197;-57
2022/06/13 10:11:31;;;;;;;1.38;1.27;;;;;;;31.59;34.16;96088.41;5001257;28;20034;-57
2022/06/13 10:14:36;;;;;;;1.35;1.25;;;;;;;31.28;35.67;96085.56;5007821;28;20042;-57
2022/06/13 10:17:21;;;;;;;4.55;1.38;;;;;;;31.28;35.67;96082.88;5057719;28;20127;-58
2022/06/13 10:19:53;;;;;;;2.53;1.30;;;;;;;31.61;34.84;96074.53;5089777;28;20503;-57
2022/06/13 10:22:34;;;;;;;1.73;1.30;;;;;;;31.28;34.60;96073.88;5089762;28;20399;-59
2022/06/13 10:25:16;;;;;;;2.75;1.30;;;;;;;32.32;33.35;96069.50;5093955;28;20020;-58
2022/06/13 10:28:06;;;;;;;1.58;1.38;;;;;;;32.14;33.47;96063.50;5080839;28;20115;-57
2022/06/13 10:30:35;;;;;;;3.22;1.15;;;;;;;31.96;34.77;96064.84;5093804;28;20035;-58
2022/06/13 10:33:18;;;;;;;3.15;1.30;;;;;;;31.75;34.39;96060.44;5093641;28;20024;-58
2022/06/13 10:36:04;;;;;;;4.25;1.63;;;;;;;32.25;33.92;96064.31;5093481;28;20020;-58
2022/06/13 10:38:29;;;;;;;1.55;1.38;;;;;;;32.01;34.33;96053.97;5093940;28;20032;-57
2022/06/13 10:40:55;;;;;;;4.75;1.40;;;;;;;31.93;35.51;96056.41;5093463;28;20020;-57
2022/06/13 10:43:21;;;;;;;1.50;1.40;;;;;;;32.65;34.22;96053.69;5093460;28;20028;-57
2022/06/13 10:45:46;;;;;;;1.95;1.60;;;;;;;32.90;33.89;96062.94;5093552;28;20035;-56
2022/06/13 10:48:50;;;;;;;2.78;1.65;;;;;;;32.63;33.84;96057.78;5075197;28;20020;-57
2022/06/13 10:51:16;;;;;;;1.88;1.40;;;;;;;32.43;34.91;96054.00;5021532;28;20114;-56
2022/06/13 10:53:43;;;;;;;2.83;1.92;;;;;;;32.52;34.26;96046.91;5093391;28;20641;-57
2022/06/13 10:56:21;;;;;;;2.72;1.38;;;;;;;32.85;33.19;96050.13;5093255;28;20063;-57
2022/06/13 10:58:49;;;;;;;1.40;1.30;;;;;;;33.55;32.21;96055.91;5080136;28;20051;-57
2022/06/13 11:01:18;;;;;;;2.00;1.58;;;;;;;32.96;34.02;96055.56;5093120;28;20028;-57
2022/06/13 11:04:06;;;;;;;1.40;1.30;;;;;;;33.06;32.44;96061.00;5093001;28;20540;-57
2022/06/13 11:06:46;;;;;;;3.60;1.38;;;;;;;33.55;31.47;96051.25;5093219;28;20016;-58
2022/06/13 11:09:40;;;;;;;2.58;2.35;;;;;;;33.44;31.14;96055.13;5093067;28;20106;-58
2022/06/13 11:12:20;;;;;;;1.98;1.35;;;;;;;33.05;32.06;96050.34;5069604;28;20047;-58
2022/06/13 11:23:25;;;;;;;2.28;1.60;;;;;;;32.56;33.51;96045.25;5092590;28;20185;-57
2022/06/13 11:25:57;;;;;;;3.38;1.20;;;;;;;33.11;33.51;96052.78;5092538;28;20110;-57
2022/06/13 11:28:27;;;;;;;1.65;1.55;;;;;;;33.16;33.26;96041.06;5092763;28;20026;-57
2022/06/13 11:31:03;;;;;;;2.05;1.60;;;;;;;32.64;33.84;96043.09;5092460;28;20417;-58
2022/06/13 11:33:37;;;;;;;3.20;1.48;;;;;;;33.15;34.29;96045.69;5092526;28;20039;-58
2022/06/13 11:36:14;;;;;;;2.67;1.80;;;;;;;33.19;34.02;96050.56;5091912;28;20035;-57
2022/06/13 11:39:05;;;;;;;1.60;1.50;;;;;;;32.98;35.26;96048.75;5092668;28;20089;-57
2022/06/13 11:41:43;;;;;;;2.10;1.90;;;;;;;32.97;34.79;96040.84;5085711;28;20036;-57
2022/06/13 11:44:17;;;;;;;2.85;1.90;;;;;;;32.99;35.11;96046.81;5092113;28;20055;-57
2022/06/13 11:46:55;;;;;;;4.35;2.58;;;;;;;32.89;36.13;96055.03;5092258;28;20051;-61
2022/06/13 11:49:45;;;;;;;1.80;1.67;;;;;;;32.60;34.96;96050.97;5092306;28;20036;-60
2022/06/13 11:52:10;;;;;;;2.53;1.67;;;;;;;32.10;37.05;96035.19;5080529;28;20490;-59
2022/06/13 11:54:46;;;;;;;4.20;2.03;;;;;;;32.72;35.23;96037.06;5092358;28;20031;-60
2022/06/13 11:57:14;;;;;;;6.50;2.10;;;;;;;32.61;35.03;96035.44;5091809;28;20308;-60
2022/06/13 11:59:49;;;;;;;3.78;1.65;;;;;;;33.11;34.34;96030.16;5092075;28;20047;-60
2022/06/13 12:02:39;;;;;;;1.52;1.42;;;;;;;33.03;33.94;96034.25;5091891;28;20028;-60
2022/06/13 12:05:39;;;;;;;2.08;1.80;;;;;;;32.35;35.41;96024.56;5092024;28;20024;-59
2022/06/13 12:08:16;;;;;;;4.80;1.75;;;;;;;32.90;34.60;96032.94;5049439;28;20037;-61
2022/06/13 12:11:02;;;;;;;2.38;1.83;;;;;;;32.93;35.20;96032.38;5079120;28;20099;-60
2022/06/13 12:13:34;;;;;;;4.97;1.80;;;;;;;33.11;34.57;96032.88;5091792;28;20036;-60
2022/06/13 12:16:08;;;;;;;2.25;1.88;;;;;;;33.12;33.70;96038.06;5091666;28;20028;-60
2022/06/13 12:18:36;;;;;;;3.85;2.08;;;;;;;32.41;35.15;96024.31;5091586;28;20437;-60
2022/06/13 12:21:19;;;;;;;3.10;2.03;;;;;;;32.46;35.22;96026.22;5091609;28;20542;-60
2022/06/13 12:23:50;;;;;;;2.08;1.67;;;;;;;32.10;34.66;96023.47;5091379;28;20518;-60
2022/06/13 12:26:29;;;;;;;2.28;2.03;;;;;;;32.26;34.18;96025.09;5091652;28;20023;-60